This is the latest recevied weather packets stored in our database for station/object SP2WPY-13. If no packets are shown the sender has not sent any weather packets the latest 10 day(s).
| Time | Temp. | Humidity | Pressure | Rain* | Wind** | Luminosity | Snow |
|---|---|---|---|---|---|---|---|
| 1787423718 | 15° C | 100% | 1012.5 hPa | - | - | - | - |
| 1787423443 | 15° C | 100% | 1012.5 hPa | - | - | - | - |
| 1787423124 | 15° C | 100% | 1012.3 hPa | - | - | - | - |
| 1787422804 | 15° C | 100% | 1012.2 hPa | - | - | - | - |
| 1787422531 | 15° C | 100% | 1012.1 hPa | - | - | - | - |
| 1787422211 | 15° C | 100% | 1012.1 hPa | - | - | - | - |
| 1787421936 | 15° C | 100% | 1012.1 hPa | - | - | - | - |
| 1787421616 | 15° C | 100% | 1012.1 hPa | - | - | - | - |
| 1787421342 | 15° C | 100% | 1012 hPa | - | - | - | - |
| 1787421023 | 15° C | 100% | 1012 hPa | - | - | - | - |
| 1787420703 | 15° C | 100% | 1011.9 hPa | - | - | - | - |
| 1787420429 | 15° C | 100% | 1011.9 hPa | - | - | - | - |
| 1787420109 | 15° C | 100% | 1011.9 hPa | - | - | - | - |
| 1787419835 | 15.56° C | 100% | 1011.8 hPa | - | - | - | - |
| 1787419516 | 15.56° C | 100% | 1011.9 hPa | - | - | - | - |
| 1787419241 | 16.11° C | 98% | 1011.9 hPa | - | - | - | - |
| 1787418922 | 16.11° C | 96% | 1011.8 hPa | - | - | - | - |
| 1787418603 | 16.67° C | 96% | 1011.8 hPa | - | - | - | - |
| 1787418329 | 16.11° C | 96% | 1011.9 hPa | - | - | - | - |
| 1787418009 | 16.67° C | 95% | 1011.7 hPa | - | - | - | - |
| 1787417736 | 16.11° C | 96% | 1011.8 hPa | - | - | - | - |
| 1787417415 | 16.11° C | 96% | 1011.7 hPa | - | - | - | - |
| 1787417142 | 15.56° C | 96% | 1011.8 hPa | - | - | - | - |
| 1787416821 | 16.11° C | 94% | 1011.5 hPa | - | - | - | - |
| 1787416502 | 16.11° C | 92% | 1011.6 hPa | - | - | - | - |
* Rain since midnight (hover to see other rain measurements)
** Current wind speed in m/s (hover to see current wind gust speed)